sensor_id;sensor_type;location;lat;lon;timestamp;P1;durP1;ratioP1;P2;durP2;ratioP2
57551;SDS011;43379;48.160;14.036;2022-08-11T00:00:00;5.80;;;5.20;;
57551;SDS011;43379;48.160;14.036;2022-08-11T00:02:35;5.77;;;5.27;;
57551;SDS011;43379;48.160;14.036;2022-08-11T00:05:08;5.80;;;5.33;;
57551;SDS011;43379;48.160;14.036;2022-08-11T00:07:43;6.07;;;5.67;;
57551;SDS011;43379;48.160;14.036;2022-08-11T00:10:12;11.73;;;5.90;;
57551;SDS011;43379;48.160;14.036;2022-08-11T00:12:43;6.03;;;5.50;;
57551;SDS011;43379;48.160;14.036;2022-08-11T00:15:16;5.83;;;5.17;;
57551;SDS011;43379;48.160;14.036;2022-08-11T00:17:42;5.07;;;4.70;;
57551;SDS011;43379;48.160;14.036;2022-08-11T00:20:10;5.93;;;5.33;;
57551;SDS011;43379;48.160;14.036;2022-08-11T00:22:38;9.43;;;5.70;;
57551;SDS011;43379;48.160;14.036;2022-08-11T00:25:13;6.40;;;5.90;;
57551;SDS011;43379;48.160;14.036;2022-08-11T00:27:44;5.57;;;5.10;;
57551;SDS011;43379;48.160;14.036;2022-08-11T00:30:11;7.53;;;6.03;;
57551;SDS011;43379;48.160;14.036;2022-08-11T00:32:38;6.07;;;5.57;;
57551;SDS011;43379;48.160;14.036;2022-08-11T00:35:07;6.10;;;5.67;;
57551;SDS011;43379;48.160;14.036;2022-08-11T00:37:36;6.93;;;6.30;;
57551;SDS011;43379;48.160;14.036;2022-08-11T00:40:04;6.50;;;5.90;;
57551;SDS011;43379;48.160;14.036;2022-08-11T00:42:53;5.80;;;5.40;;
57551;SDS011;43379;48.160;14.036;2022-08-11T00:45:25;6.10;;;5.50;;
57551;SDS011;43379;48.160;14.036;2022-08-11T00:53:35;6.93;;;6.33;;
57551;SDS011;43379;48.160;14.036;2022-08-11T01:15:12;6.03;;;5.53;;
57551;SDS011;43379;48.160;14.036;2022-08-11T01:26:58;7.83;;;6.10;;
57551;SDS011;43379;48.160;14.036;2022-08-11T01:54:45;7.13;;;6.53;;
57551;SDS011;43379;48.160;14.036;2022-08-11T02:00:06;7.77;;;6.97;;
57551;SDS011;43379;48.160;14.036;2022-08-11T02:03:20;6.30;;;5.90;;
57551;SDS011;43379;48.160;14.036;2022-08-11T02:08:58;6.30;;;5.80;;
57551;SDS011;43379;48.160;14.036;2022-08-11T02:11:34;6.70;;;6.00;;
57551;SDS011;43379;48.160;14.036;2022-08-11T02:16:56;6.60;;;5.90;;
57551;SDS011;43379;48.160;14.036;2022-08-11T02:22:56;6.43;;;5.93;;
57551;SDS011;43379;48.160;14.036;2022-08-11T02:31:06;6.50;;;5.37;;
57551;SDS011;43379;48.160;14.036;2022-08-11T02:34:01;6.10;;;5.60;;
57551;SDS011;43379;48.160;14.036;2022-08-11T02:36:44;7.00;;;6.30;;
57551;SDS011;43379;48.160;14.036;2022-08-11T02:39:40;6.87;;;6.20;;
57551;SDS011;43379;48.160;14.036;2022-08-11T02:50:51;6.47;;;6.07;;
57551;SDS011;43379;48.160;14.036;2022-08-11T02:53:31;8.73;;;7.97;;
57551;SDS011;43379;48.160;14.036;2022-08-11T03:01:58;8.50;;;7.67;;
57551;SDS011;43379;48.160;14.036;2022-08-11T03:16:23;7.30;;;6.37;;
57551;SDS011;43379;48.160;14.036;2022-08-11T03:19:29;8.90;;;7.10;;
57551;SDS011;43379;48.160;14.036;2022-08-11T03:27:31;7.53;;;6.93;;
57551;SDS011;43379;48.160;14.036;2022-08-11T03:35:41;7.30;;;5.73;;
57551;SDS011;43379;48.160;14.036;2022-08-11T03:38:12;6.93;;;6.33;;
57551;SDS011;43379;48.160;14.036;2022-08-11T03:43:58;9.10;;;6.33;;
57551;SDS011;43379;48.160;14.036;2022-08-11T03:49:35;7.10;;;6.50;;
57551;SDS011;43379;48.160;14.036;2022-08-11T04:01:37;8.23;;;7.43;;
57551;SDS011;43379;48.160;14.036;2022-08-11T04:14:58;7.30;;;6.70;;
57551;SDS011;43379;48.160;14.036;2022-08-11T04:37:47;7.77;;;7.00;;
57551;SDS011;43379;48.160;14.036;2022-08-11T04:52:54;8.50;;;7.03;;
57551;SDS011;43379;48.160;14.036;2022-08-11T04:56:19;7.20;;;6.70;;
57551;SDS011;43379;48.160;14.036;2022-08-11T04:59:11;7.27;;;6.17;;
57551;SDS011;43379;48.160;14.036;2022-08-11T05:13:46;8.97;;;6.67;;
57551;SDS011;43379;48.160;14.036;2022-08-11T05:16:39;6.97;;;6.27;;
57551;SDS011;43379;48.160;14.036;2022-08-11T05:19:31;6.70;;;6.10;;
57551;SDS011;43379;48.160;14.036;2022-08-11T05:22:16;6.83;;;6.23;;
57551;SDS011;43379;48.160;14.036;2022-08-11T05:30:55;7.00;;;5.10;;
57551;SDS011;43379;48.160;14.036;2022-08-11T05:33:47;6.30;;;5.80;;
57551;SDS011;43379;48.160;14.036;2022-08-11T05:39:01;6.30;;;5.80;;
57551;SDS011;43379;48.160;14.036;2022-08-11T05:41:49;5.07;;;4.67;;
57551;SDS011;43379;48.160;14.036;2022-08-11T05:44:40;6.43;;;5.90;;
57551;SDS011;43379;48.160;14.036;2022-08-11T05:47:28;7.83;;;5.50;;
57551;SDS011;43379;48.160;14.036;2022-08-11T05:50:13;6.63;;;6.03;;
57551;SDS011;43379;48.160;14.036;2022-08-11T05:53:00;5.23;;;4.80;;
57551;SDS011;43379;48.160;14.036;2022-08-11T05:55:46;5.93;;;5.20;;
57551;SDS011;43379;48.160;14.036;2022-08-11T05:58:39;10.50;;;5.53;;
57551;SDS011;43379;48.160;14.036;2022-08-11T06:01:06;6.80;;;6.20;;
57551;SDS011;43379;48.160;14.036;2022-08-11T06:03:33;6.73;;;6.10;;
57551;SDS011;43379;48.160;14.036;2022-08-11T06:06:23;5.30;;;4.80;;
57551;SDS011;43379;48.160;14.036;2022-08-11T06:08:53;5.23;;;4.73;;
57551;SDS011;43379;48.160;14.036;2022-08-11T06:11:20;5.40;;;5.00;;
57551;SDS011;43379;48.160;14.036;2022-08-11T06:13:49;5.57;;;5.13;;
57551;SDS011;43379;48.160;14.036;2022-08-11T06:16:20;5.90;;;5.40;;
57551;SDS011;43379;48.160;14.036;2022-08-11T06:18:47;6.20;;;5.60;;
57551;SDS011;43379;48.160;14.036;2022-08-11T06:21:14;6.77;;;5.23;;
57551;SDS011;43379;48.160;14.036;2022-08-11T06:23:41;5.30;;;4.90;;
57551;SDS011;43379;48.160;14.036;2022-08-11T06:26:08;6.07;;;5.47;;
57551;SDS011;43379;48.160;14.036;2022-08-11T06:28:36;6.70;;;5.40;;
57551;SDS011;43379;48.160;14.036;2022-08-11T06:31:10;6.07;;;5.57;;
57551;SDS011;43379;48.160;14.036;2022-08-11T06:37:02;6.53;;;5.93;;
57551;SDS011;43379;48.160;14.036;2022-08-11T06:40:06;5.17;;;4.67;;
57551;SDS011;43379;48.160;14.036;2022-08-11T06:45:28;5.40;;;5.00;;
57551;SDS011;43379;48.160;14.036;2022-08-11T06:48:17;5.53;;;5.13;;
57551;SDS011;43379;48.160;14.036;2022-08-11T06:50:49;6.40;;;5.00;;
57551;SDS011;43379;48.160;14.036;2022-08-11T06:53:53;8.73;;;5.33;;
57551;SDS011;43379;48.160;14.036;2022-08-11T06:56:44;7.20;;;5.10;;
57551;SDS011;43379;48.160;14.036;2022-08-11T06:59:28;5.40;;;4.90;;
57551;SDS011;43379;48.160;14.036;2022-08-11T07:02:16;5.30;;;4.80;;
57551;SDS011;43379;48.160;14.036;2022-08-11T07:04:55;5.10;;;4.60;;
57551;SDS011;43379;48.160;14.036;2022-08-11T07:14:00;5.80;;;5.30;;
57551;SDS011;43379;48.160;14.036;2022-08-11T07:16:46;4.63;;;4.23;;
57551;SDS011;43379;48.160;14.036;2022-08-11T07:19:16;7.90;;;5.33;;
57551;SDS011;43379;48.160;14.036;2022-08-11T07:22:11;4.17;;;3.87;;
57551;SDS011;43379;48.160;14.036;2022-08-11T07:25:12;5.73;;;4.77;;
57551;SDS011;43379;48.160;14.036;2022-08-11T07:28:00;7.20;;;4.70;;
57551;SDS011;43379;48.160;14.036;2022-08-11T07:30:52;4.67;;;4.00;;
57551;SDS011;43379;48.160;14.036;2022-08-11T07:33:24;4.73;;;4.23;;
57551;SDS011;43379;48.160;14.036;2022-08-11T07:35:56;5.77;;;4.40;;
57551;SDS011;43379;48.160;14.036;2022-08-11T07:38:26;4.60;;;4.30;;
57551;SDS011;43379;48.160;14.036;2022-08-11T07:41:12;5.57;;;4.87;;
57551;SDS011;43379;48.160;14.036;2022-08-11T07:43:40;6.00;;;4.80;;
57551;SDS011;43379;48.160;14.036;2022-08-11T07:46:08;5.20;;;4.03;;
57551;SDS011;43379;48.160;14.036;2022-08-11T07:48:54;4.47;;;4.07;;
57551;SDS011;43379;48.160;14.036;2022-08-11T07:51:40;5.00;;;4.30;;
57551;SDS011;43379;48.160;14.036;2022-08-11T07:54:26;6.17;;;4.30;;
57551;SDS011;43379;48.160;14.036;2022-08-11T07:56:52;6.00;;;4.33;;
57551;SDS011;43379;48.160;14.036;2022-08-11T07:59:19;4.17;;;3.87;;
57551;SDS011;43379;48.160;14.036;2022-08-11T08:02:04;4.20;;;3.70;;
57551;SDS011;43379;48.160;14.036;2022-08-11T08:04:49;4.23;;;3.93;;
57551;SDS011;43379;48.160;14.036;2022-08-11T08:07:34;4.97;;;4.50;;
57551;SDS011;43379;48.160;14.036;2022-08-11T08:10:19;5.83;;;3.80;;
57551;SDS011;43379;48.160;14.036;2022-08-11T08:13:05;5.67;;;4.20;;
57551;SDS011;43379;48.160;14.036;2022-08-11T08:15:50;4.43;;;3.13;;
57551;SDS011;43379;48.160;14.036;2022-08-11T08:18:36;3.73;;;3.43;;
57551;SDS011;43379;48.160;14.036;2022-08-11T08:21:04;4.10;;;3.60;;
57551;SDS011;43379;48.160;14.036;2022-08-11T08:23:39;5.47;;;3.90;;
57551;SDS011;43379;48.160;14.036;2022-08-11T08:26:12;4.27;;;3.87;;
57551;SDS011;43379;48.160;14.036;2022-08-11T08:29:00;5.07;;;4.07;;
57551;SDS011;43379;48.160;14.036;2022-08-11T08:31:46;4.20;;;3.63;;
57551;SDS011;43379;48.160;14.036;2022-08-11T08:34:13;4.10;;;3.40;;
57551;SDS011;43379;48.160;14.036;2022-08-11T08:36:46;3.83;;;3.30;;
57551;SDS011;43379;48.160;14.036;2022-08-11T08:39:13;4.20;;;3.40;;
57551;SDS011;43379;48.160;14.036;2022-08-11T08:41:45;3.70;;;3.40;;
57551;SDS011;43379;48.160;14.036;2022-08-11T08:44:14;4.70;;;3.67;;
57551;SDS011;43379;48.160;14.036;2022-08-11T08:46:45;8.63;;;3.40;;
57551;SDS011;43379;48.160;14.036;2022-08-11T08:49:17;5.50;;;3.70;;
57551;SDS011;43379;48.160;14.036;2022-08-11T08:51:51;5.73;;;3.10;;
57551;SDS011;43379;48.160;14.036;2022-08-11T08:54:20;5.50;;;4.07;;
57551;SDS011;43379;48.160;14.036;2022-08-11T08:56:52;4.10;;;3.60;;
57551;SDS011;43379;48.160;14.036;2022-08-11T08:59:20;7.30;;;3.50;;
57551;SDS011;43379;48.160;14.036;2022-08-11T09:01:50;5.90;;;4.30;;
57551;SDS011;43379;48.160;14.036;2022-08-11T09:04:21;6.83;;;3.70;;
57551;SDS011;43379;48.160;14.036;2022-08-11T09:06:48;3.80;;;3.50;;
57551;SDS011;43379;48.160;14.036;2022-08-11T09:09:14;3.93;;;3.20;;
57551;SDS011;43379;48.160;14.036;2022-08-11T09:11:42;3.83;;;3.00;;
57551;SDS011;43379;48.160;14.036;2022-08-11T09:17:09;3.53;;;2.87;;
57551;SDS011;43379;48.160;14.036;2022-08-11T09:19:36;8.10;;;3.30;;
57551;SDS011;43379;48.160;14.036;2022-08-11T09:22:02;3.63;;;3.33;;
57551;SDS011;43379;48.160;14.036;2022-08-11T09:24:47;5.37;;;3.40;;
57551;SDS011;43379;48.160;14.036;2022-08-11T09:27:32;3.90;;;3.37;;
57551;SDS011;43379;48.160;14.036;2022-08-11T09:29:59;5.00;;;2.90;;
57551;SDS011;43379;48.160;14.036;2022-08-11T09:32:26;7.07;;;3.30;;
57551;SDS011;43379;48.160;14.036;2022-08-11T09:34:53;3.23;;;2.97;;
57551;SDS011;43379;48.160;14.036;2022-08-11T09:37:19;4.40;;;3.57;;
57551;SDS011;43379;48.160;14.036;2022-08-11T09:40:05;3.60;;;3.00;;
57551;SDS011;43379;48.160;14.036;2022-08-11T09:42:50;3.10;;;2.80;;
57551;SDS011;43379;48.160;14.036;2022-08-11T09:45:36;4.30;;;3.40;;
57551;SDS011;43379;48.160;14.036;2022-08-11T09:48:02;3.43;;;3.23;;
57551;SDS011;43379;48.160;14.036;2022-08-11T09:50:30;3.50;;;3.20;;
57551;SDS011;43379;48.160;14.036;2022-08-11T09:53:00;3.57;;;2.93;;
57551;SDS011;43379;48.160;14.036;2022-08-11T09:55:33;3.73;;;3.40;;
57551;SDS011;43379;48.160;14.036;2022-08-11T09:57:59;3.50;;;3.20;;
57551;SDS011;43379;48.160;14.036;2022-08-11T10:00:38;4.53;;;3.03;;
57551;SDS011;43379;48.160;14.036;2022-08-11T10:03:37;5.67;;;3.50;;
57551;SDS011;43379;48.160;14.036;2022-08-11T10:05:58;3.50;;;3.23;;
57551;SDS011;43379;48.160;14.036;2022-08-11T10:08:46;4.40;;;3.20;;
57551;SDS011;43379;48.160;14.036;2022-08-11T10:11:17;2.90;;;2.70;;
57551;SDS011;43379;48.160;14.036;2022-08-11T10:13:47;3.57;;;3.23;;
57551;SDS011;43379;48.160;14.036;2022-08-11T10:16:36;5.67;;;3.20;;
57551;SDS011;43379;48.160;14.036;2022-08-11T10:19:05;2.87;;;2.67;;
57551;SDS011;43379;48.160;14.036;2022-08-11T10:21:36;2.60;;;2.40;;
57551;SDS011;43379;48.160;14.036;2022-08-11T10:24:06;5.70;;;3.20;;
57551;SDS011;43379;48.160;14.036;2022-08-11T10:26:52;3.20;;;3.00;;
57551;SDS011;43379;48.160;14.036;2022-08-11T10:29:23;4.33;;;3.30;;
57551;SDS011;43379;48.160;14.036;2022-08-11T10:32:08;4.00;;;2.50;;
57551;SDS011;43379;48.160;14.036;2022-08-11T10:34:52;3.67;;;2.73;;
57551;SDS011;43379;48.160;14.036;2022-08-11T10:37:20;4.67;;;3.03;;
57551;SDS011;43379;48.160;14.036;2022-08-11T10:39:48;3.53;;;2.67;;
57551;SDS011;43379;48.160;14.036;2022-08-11T10:42:15;2.93;;;2.73;;
57551;SDS011;43379;48.160;14.036;2022-08-11T10:45:00;4.77;;;2.67;;
57551;SDS011;43379;48.160;14.036;2022-08-11T10:47:54;3.77;;;3.47;;
57551;SDS011;43379;48.160;14.036;2022-08-11T10:50:21;5.83;;;2.70;;
57551;SDS011;43379;48.160;14.036;2022-08-11T10:53:06;3.17;;;2.97;;
57551;SDS011;43379;48.160;14.036;2022-08-11T10:55:52;3.67;;;3.07;;
57551;SDS011;43379;48.160;14.036;2022-08-11T10:58:37;3.50;;;3.20;;
57551;SDS011;43379;48.160;14.036;2022-08-11T11:01:26;2.80;;;2.60;;
57551;SDS011;43379;48.160;14.036;2022-08-11T11:04:03;2.73;;;2.53;;
57551;SDS011;43379;48.160;14.036;2022-08-11T11:09:16;3.53;;;3.23;;
57551;SDS011;43379;48.160;14.036;2022-08-11T11:11:58;3.50;;;3.20;;
57551;SDS011;43379;48.160;14.036;2022-08-11T11:15:03;4.87;;;3.53;;
57551;SDS011;43379;48.160;14.036;2022-08-11T11:17:59;3.30;;;3.00;;
57551;SDS011;43379;48.160;14.036;2022-08-11T11:20:40;3.53;;;3.10;;
57551;SDS011;43379;48.160;14.036;2022-08-11T11:28:47;3.90;;;3.33;;
57551;SDS011;43379;48.160;14.036;2022-08-11T11:36:59;3.30;;;3.03;;
57551;SDS011;43379;48.160;14.036;2022-08-11T11:39:26;3.17;;;2.97;;
57551;SDS011;43379;48.160;14.036;2022-08-11T11:41:56;3.07;;;2.87;;
57551;SDS011;43379;48.160;14.036;2022-08-11T11:44:24;3.23;;;2.90;;
57551;SDS011;43379;48.160;14.036;2022-08-11T11:46:51;3.33;;;3.00;;
57551;SDS011;43379;48.160;14.036;2022-08-11T11:49:17;4.90;;;3.40;;
57551;SDS011;43379;48.160;14.036;2022-08-11T11:51:46;3.43;;;3.13;;
57551;SDS011;43379;48.160;14.036;2022-08-11T11:54:14;3.20;;;2.83;;
57551;SDS011;43379;48.160;14.036;2022-08-11T11:56:41;2.90;;;2.57;;
57551;SDS011;43379;48.160;14.036;2022-08-11T11:59:09;4.63;;;2.67;;
57551;SDS011;43379;48.160;14.036;2022-08-11T12:01:55;2.90;;;2.70;;
57551;SDS011;43379;48.160;14.036;2022-08-11T12:04:21;3.20;;;2.90;;
57551;SDS011;43379;48.160;14.036;2022-08-11T12:06:48;5.60;;;3.00;;
57551;SDS011;43379;48.160;14.036;2022-08-11T12:09:16;3.00;;;2.70;;
57551;SDS011;43379;48.160;14.036;2022-08-11T12:11:47;8.60;;;2.80;;
57551;SDS011;43379;48.160;14.036;2022-08-11T12:14:32;3.10;;;2.90;;
57551;SDS011;43379;48.160;14.036;2022-08-11T12:17:00;3.03;;;2.73;;
57551;SDS011;43379;48.160;14.036;2022-08-11T12:19:26;3.60;;;2.53;;
57551;SDS011;43379;48.160;14.036;2022-08-11T12:21:55;3.97;;;3.00;;
57551;SDS011;43379;48.160;14.036;2022-08-11T12:24:40;4.73;;;2.87;;
57551;SDS011;43379;48.160;14.036;2022-08-11T12:27:26;6.80;;;3.17;;
57551;SDS011;43379;48.160;14.036;2022-08-11T12:29:58;6.10;;;3.20;;
57551;SDS011;43379;48.160;14.036;2022-08-11T12:32:30;6.93;;;3.37;;
57551;SDS011;43379;48.160;14.036;2022-08-11T12:34:58;2.53;;;2.33;;
57551;SDS011;43379;48.160;14.036;2022-08-11T12:37:35;3.33;;;3.03;;
57551;SDS011;43379;48.160;14.036;2022-08-11T12:40:06;3.03;;;2.73;;
57551;SDS011;43379;48.160;14.036;2022-08-11T12:42:55;5.20;;;2.30;;
57551;SDS011;43379;48.160;14.036;2022-08-11T12:45:43;6.70;;;2.67;;
57551;SDS011;43379;48.160;14.036;2022-08-11T12:48:12;2.93;;;2.73;;
57551;SDS011;43379;48.160;14.036;2022-08-11T12:51:01;2.67;;;2.47;;
57551;SDS011;43379;48.160;14.036;2022-08-11T12:53:53;3.63;;;3.40;;
57551;SDS011;43379;48.160;14.036;2022-08-11T12:56:24;4.13;;;2.97;;
57551;SDS011;43379;48.160;14.036;2022-08-11T12:59:15;2.63;;;2.43;;
57551;SDS011;43379;48.160;14.036;2022-08-11T13:01:59;3.67;;;2.60;;
57551;SDS011;43379;48.160;14.036;2022-08-11T13:04:45;4.33;;;2.57;;
57551;SDS011;43379;48.160;14.036;2022-08-11T13:07:23;4.07;;;2.93;;
57551;SDS011;43379;48.160;14.036;2022-08-11T13:09:52;2.27;;;2.17;;
57551;SDS011;43379;48.160;14.036;2022-08-11T13:12:21;2.60;;;2.40;;
57551;SDS011;43379;48.160;14.036;2022-08-11T13:15:06;2.77;;;2.57;;
57551;SDS011;43379;48.160;14.036;2022-08-11T13:17:34;2.33;;;2.13;;
57551;SDS011;43379;48.160;14.036;2022-08-11T13:20:02;2.50;;;2.30;;
57551;SDS011;43379;48.160;14.036;2022-08-11T13:22:30;2.70;;;1.97;;
57551;SDS011;43379;48.160;14.036;2022-08-11T13:24:56;2.80;;;2.10;;
57551;SDS011;43379;48.160;14.036;2022-08-11T13:27:22;2.60;;;2.40;;
57551;SDS011;43379;48.160;14.036;2022-08-11T13:29:49;3.17;;;2.50;;
57551;SDS011;43379;48.160;14.036;2022-08-11T13:32:35;5.27;;;2.57;;
57551;SDS011;43379;48.160;14.036;2022-08-11T13:35:02;2.43;;;2.23;;
57551;SDS011;43379;48.160;14.036;2022-08-11T13:37:28;2.77;;;2.57;;
57551;SDS011;43379;48.160;14.036;2022-08-11T13:39:54;2.87;;;2.60;;
57551;SDS011;43379;48.160;14.036;2022-08-11T13:42:20;2.23;;;2.03;;
57551;SDS011;43379;48.160;14.036;2022-08-11T13:44:46;2.67;;;2.47;;
57551;SDS011;43379;48.160;14.036;2022-08-11T13:47:12;2.80;;;2.60;;
57551;SDS011;43379;48.160;14.036;2022-08-11T13:49:40;4.43;;;2.60;;
57551;SDS011;43379;48.160;14.036;2022-08-11T13:52:16;5.60;;;2.70;;
57551;SDS011;43379;48.160;14.036;2022-08-11T13:54:44;4.17;;;2.60;;
57551;SDS011;43379;48.160;14.036;2022-08-11T13:57:12;2.40;;;2.20;;
57551;SDS011;43379;48.160;14.036;2022-08-11T13:59:44;2.80;;;2.60;;
57551;SDS011;43379;48.160;14.036;2022-08-11T14:02:12;3.77;;;2.37;;
57551;SDS011;43379;48.160;14.036;2022-08-11T14:04:54;4.20;;;2.43;;
57551;SDS011;43379;48.160;14.036;2022-08-11T14:07:23;3.50;;;2.90;;
57551;SDS011;43379;48.160;14.036;2022-08-11T14:09:53;2.27;;;2.07;;
57551;SDS011;43379;48.160;14.036;2022-08-11T14:12:23;3.77;;;2.60;;
57551;SDS011;43379;48.160;14.036;2022-08-11T14:15:11;2.80;;;2.30;;
57551;SDS011;43379;48.160;14.036;2022-08-11T14:17:44;2.13;;;2.03;;
57551;SDS011;43379;48.160;14.036;2022-08-11T14:20:16;2.30;;;2.10;;
57551;SDS011;43379;48.160;14.036;2022-08-11T14:22:43;2.50;;;1.97;;
57551;SDS011;43379;48.160;14.036;2022-08-11T14:25:11;1.93;;;1.83;;
57551;SDS011;43379;48.160;14.036;2022-08-11T14:27:39;2.30;;;2.10;;
57551;SDS011;43379;48.160;14.036;2022-08-11T14:30:06;2.97;;;2.77;;
57551;SDS011;43379;48.160;14.036;2022-08-11T14:32:52;2.90;;;1.80;;
57551;SDS011;43379;48.160;14.036;2022-08-11T14:35:20;3.47;;;2.20;;
57551;SDS011;43379;48.160;14.036;2022-08-11T14:37:46;2.13;;;1.93;;
57551;SDS011;43379;48.160;14.036;2022-08-11T14:40:12;2.10;;;1.93;;
57551;SDS011;43379;48.160;14.036;2022-08-11T14:42:58;3.30;;;1.93;;
57551;SDS011;43379;48.160;14.036;2022-08-11T14:45:43;2.10;;;2.00;;
57551;SDS011;43379;48.160;14.036;2022-08-11T14:48:29;4.23;;;2.03;;
57551;SDS011;43379;48.160;14.036;2022-08-11T14:50:55;2.13;;;1.93;;
57551;SDS011;43379;48.160;14.036;2022-08-11T14:53:22;2.90;;;2.30;;
57551;SDS011;43379;48.160;14.036;2022-08-11T14:55:48;3.93;;;2.30;;
57551;SDS011;43379;48.160;14.036;2022-08-11T14:58:33;2.30;;;2.10;;
57551;SDS011;43379;48.160;14.036;2022-08-11T15:01:01;2.30;;;2.10;;
57551;SDS011;43379;48.160;14.036;2022-08-11T15:03:48;2.33;;;1.67;;
57551;SDS011;43379;48.160;14.036;2022-08-11T15:06:16;3.33;;;1.70;;
57551;SDS011;43379;48.160;14.036;2022-08-11T15:08:42;1.83;;;1.73;;
57551;SDS011;43379;48.160;14.036;2022-08-11T15:11:20;2.37;;;2.17;;
57551;SDS011;43379;48.160;14.036;2022-08-11T15:14:12;3.83;;;2.00;;
57551;SDS011;43379;48.160;14.036;2022-08-11T15:16:41;2.30;;;1.90;;
57551;SDS011;43379;48.160;14.036;2022-08-11T15:19:27;2.27;;;1.70;;
57551;SDS011;43379;48.160;14.036;2022-08-11T15:21:55;2.00;;;1.70;;
57551;SDS011;43379;48.160;14.036;2022-08-11T15:24:53;2.37;;;2.00;;
57551;SDS011;43379;48.160;14.036;2022-08-11T15:27:18;4.00;;;1.70;;
57551;SDS011;43379;48.160;14.036;2022-08-11T15:30:05;4.00;;;2.10;;
57551;SDS011;43379;48.160;14.036;2022-08-11T15:32:50;2.00;;;1.90;;
57551;SDS011;43379;48.160;14.036;2022-08-11T15:35:36;2.57;;;2.00;;
57551;SDS011;43379;48.160;14.036;2022-08-11T15:38:21;3.60;;;2.37;;
57551;SDS011;43379;48.160;14.036;2022-08-11T15:40:47;2.63;;;2.40;;
57551;SDS011;43379;48.160;14.036;2022-08-11T15:43:38;3.40;;;2.17;;
57551;SDS011;43379;48.160;14.036;2022-08-11T15:49:36;2.40;;;1.90;;
57551;SDS011;43379;48.160;14.036;2022-08-11T15:51:54;2.20;;;2.00;;
57551;SDS011;43379;48.160;14.036;2022-08-11T15:54:22;2.47;;;2.27;;
57551;SDS011;43379;48.160;14.036;2022-08-11T15:56:52;2.77;;;2.53;;
57551;SDS011;43379;48.160;14.036;2022-08-11T15:59:19;2.87;;;2.20;;
57551;SDS011;43379;48.160;14.036;2022-08-11T16:02:05;3.43;;;1.90;;
57551;SDS011;43379;48.160;14.036;2022-08-11T16:05:00;4.33;;;2.50;;
57551;SDS011;43379;48.160;14.036;2022-08-11T16:07:30;2.17;;;1.97;;
57551;SDS011;43379;48.160;14.036;2022-08-11T16:10:12;1.73;;;1.63;;
57551;SDS011;43379;48.160;14.036;2022-08-11T16:12:47;4.30;;;2.23;;
57551;SDS011;43379;48.160;14.036;2022-08-11T16:15:44;5.43;;;2.13;;
57551;SDS011;43379;48.160;14.036;2022-08-11T16:18:32;2.60;;;2.00;;
57551;SDS011;43379;48.160;14.036;2022-08-11T16:21:09;5.10;;;2.37;;
57551;SDS011;43379;48.160;14.036;2022-08-11T16:23:46;2.60;;;2.30;;
57551;SDS011;43379;48.160;14.036;2022-08-11T16:26:19;2.23;;;2.13;;
57551;SDS011;43379;48.160;14.036;2022-08-11T16:28:48;3.60;;;2.10;;
57551;SDS011;43379;48.160;14.036;2022-08-11T16:31:22;1.70;;;1.60;;
57551;SDS011;43379;48.160;14.036;2022-08-11T16:33:49;2.07;;;1.80;;
57551;SDS011;43379;48.160;14.036;2022-08-11T16:36:18;4.13;;;2.10;;
57551;SDS011;43379;48.160;14.036;2022-08-11T16:39:04;2.30;;;2.13;;
57551;SDS011;43379;48.160;14.036;2022-08-11T16:41:32;1.90;;;1.80;;
57551;SDS011;43379;48.160;14.036;2022-08-11T16:44:18;2.50;;;2.30;;
57551;SDS011;43379;48.160;14.036;2022-08-11T16:47:04;1.83;;;1.60;;
57551;SDS011;43379;48.160;14.036;2022-08-11T16:49:35;2.43;;;2.20;;
57551;SDS011;43379;48.160;14.036;2022-08-11T16:52:04;3.40;;;2.63;;
57551;SDS011;43379;48.160;14.036;2022-08-11T16:54:35;2.53;;;2.33;;
57551;SDS011;43379;48.160;14.036;2022-08-11T16:57:02;2.43;;;2.23;;
57551;SDS011;43379;48.160;14.036;2022-08-11T16:59:50;4.13;;;2.60;;
57551;SDS011;43379;48.160;14.036;2022-08-11T17:02:18;3.70;;;2.10;;
57551;SDS011;43379;48.160;14.036;2022-08-11T17:05:10;2.53;;;2.00;;
57551;SDS011;43379;48.160;14.036;2022-08-11T17:08:00;2.80;;;1.90;;
57551;SDS011;43379;48.160;14.036;2022-08-11T17:10:55;3.97;;;1.80;;
57551;SDS011;43379;48.160;14.036;2022-08-11T17:16:31;3.30;;;1.80;;
57551;SDS011;43379;48.160;14.036;2022-08-11T17:19:10;2.27;;;2.07;;
57551;SDS011;43379;48.160;14.036;2022-08-11T17:21:42;2.23;;;1.90;;
57551;SDS011;43379;48.160;14.036;2022-08-11T17:24:28;3.70;;;2.40;;
57551;SDS011;43379;48.160;14.036;2022-08-11T17:26:58;3.17;;;2.40;;
57551;SDS011;43379;48.160;14.036;2022-08-11T17:31:53;1.93;;;1.80;;
57551;SDS011;43379;48.160;14.036;2022-08-11T17:34:39;4.37;;;1.80;;
57551;SDS011;43379;48.160;14.036;2022-08-11T17:37:27;2.67;;;2.33;;
57551;SDS011;43379;48.160;14.036;2022-08-11T17:39:55;3.50;;;2.20;;
57551;SDS011;43379;48.160;14.036;2022-08-11T17:42:22;2.83;;;2.50;;
57551;SDS011;43379;48.160;14.036;2022-08-11T17:45:09;5.30;;;2.50;;
57551;SDS011;43379;48.160;14.036;2022-08-11T17:47:54;2.00;;;1.90;;
57551;SDS011;43379;48.160;14.036;2022-08-11T17:50:40;2.30;;;2.10;;
57551;SDS011;43379;48.160;14.036;2022-08-11T17:53:06;2.50;;;2.30;;
57551;SDS011;43379;48.160;14.036;2022-08-11T17:55:51;3.37;;;2.50;;
57551;SDS011;43379;48.160;14.036;2022-08-11T17:58:37;2.67;;;1.70;;
57551;SDS011;43379;48.160;14.036;2022-08-11T18:01:23;3.10;;;2.50;;
57551;SDS011;43379;48.160;14.036;2022-08-11T18:03:50;2.20;;;2.00;;
57551;SDS011;43379;48.160;14.036;2022-08-11T18:06:18;2.40;;;2.20;;
57551;SDS011;43379;48.160;14.036;2022-08-11T18:08:46;2.90;;;2.40;;
57551;SDS011;43379;48.160;14.036;2022-08-11T18:11:33;2.23;;;2.00;;
57551;SDS011;43379;48.160;14.036;2022-08-11T18:14:19;2.77;;;2.57;;
57551;SDS011;43379;48.160;14.036;2022-08-11T18:17:05;2.70;;;2.50;;
57551;SDS011;43379;48.160;14.036;2022-08-11T18:19:49;4.00;;;2.17;;
57551;SDS011;43379;48.160;14.036;2022-08-11T18:22:35;5.07;;;2.50;;
57551;SDS011;43379;48.160;14.036;2022-08-11T18:25:30;2.87;;;2.10;;
57551;SDS011;43379;48.160;14.036;2022-08-11T18:28:18;2.40;;;2.00;;
57551;SDS011;43379;48.160;14.036;2022-08-11T18:31:08;2.80;;;2.47;;
57551;SDS011;43379;48.160;14.036;2022-08-11T18:33:56;3.83;;;2.50;;
57551;SDS011;43379;48.160;14.036;2022-08-11T18:36:53;2.60;;;2.40;;
57551;SDS011;43379;48.160;14.036;2022-08-11T18:39:51;2.87;;;2.63;;
57551;SDS011;43379;48.160;14.036;2022-08-11T18:42:39;2.73;;;2.20;;
57551;SDS011;43379;48.160;14.036;2022-08-11T18:45:26;3.57;;;2.60;;
57551;SDS011;43379;48.160;14.036;2022-08-11T18:48:11;7.47;;;2.40;;
57551;SDS011;43379;48.160;14.036;2022-08-11T18:50:59;3.93;;;2.43;;
57551;SDS011;43379;48.160;14.036;2022-08-11T18:53:48;3.40;;;1.90;;
57551;SDS011;43379;48.160;14.036;2022-08-11T18:56:35;2.50;;;2.30;;
57551;SDS011;43379;48.160;14.036;2022-08-11T18:59:21;2.40;;;2.20;;
57551;SDS011;43379;48.160;14.036;2022-08-11T19:02:08;5.30;;;2.80;;
57551;SDS011;43379;48.160;14.036;2022-08-11T19:04:55;3.27;;;2.53;;
57551;SDS011;43379;48.160;14.036;2022-08-11T19:07:42;2.80;;;2.40;;
57551;SDS011;43379;48.160;14.036;2022-08-11T19:10:28;3.70;;;2.00;;
57551;SDS011;43379;48.160;14.036;2022-08-11T19:13:13;3.47;;;2.50;;
57551;SDS011;43379;48.160;14.036;2022-08-11T19:16:00;3.07;;;2.13;;
57551;SDS011;43379;48.160;14.036;2022-08-11T19:18:46;2.50;;;2.17;;
57551;SDS011;43379;48.160;14.036;2022-08-11T19:21:33;2.93;;;2.63;;
57551;SDS011;43379;48.160;14.036;2022-08-11T19:24:20;3.20;;;2.70;;